Latest Weather Observations for Townsville

IDQ60801

Issued at 3:32 pm EST Thursday 8 December 2016 (issued every 30 minutes, with the page automatically refreshed every 10 minutes)

About weather observations | Map of weather stations | Latest weather observations for QLD | Other Formats
Station Details ID: 032040 Name: TOWNSVILLE AERO Lat: -19.25 Lon: 146.77 Height: 4.34 m
Data from the previous 72 hours. | See also: Recent months at Townsville
Date/Time
EST
Temp
°C
App
Temp
°C
Dew
Point
°C
Rel
Hum
%
Delta-T
°C
Wind Press
QNH
hPa
Press
MSL
hPa
Rain since
9am
mm
Dir  Spd
km/h
Gust
km/h
Spd
kts
Gust
kts
08/03:00pm 30.7 29.5 20.8 55 6.6 ENE 28 37 15 20 1008.5 1008.4 0.0
08/02:30pm 30.9 29.7 21.6 57 6.3 ENE 30 35 16 19 1008.5 1008.4 0.0
08/02:00pm 31.2 29.8 21.2 55 6.7 ENE 30 35 16 19 1008.8 1008.7 0.0
08/01:30pm 30.5 29.3 21.6 59 6.0 ENE 30 35 16 19 1009.2 1009.1 0.0
08/01:00pm 30.8 29.5 21.3 57 6.4 ENE 30 35 16 19 1009.6 1009.5 0.0
08/12:30pm 30.6 29.4 22.2 61 5.7 ENE 32 37 17 20 1009.9 1009.8 0.0
08/12:00pm 30.9 30.3 21.9 58 6.1 NE 28 33 15 18 1010.2 1010.1 0.0
08/11:30am 31.8 31.1 21.8 55 6.8 ENE 28 37 15 20 1010.7 1010.6 0.0
08/11:00am 31.2 30.4 21.6 56 6.5 NE 28 33 15 18 1010.8 1010.7 0.0
08/10:30am 30.6 30.0 21.9 59 5.9 NE 28 33 15 18 1011.2 1011.1 0.0
08/10:00am 30.7 30.7 21.7 58 6.1 ENE 24 33 13 18 1011.2 1011.1 0.0
08/09:30am 30.9 30.6 21.9 58 6.1 ENE 26 33 14 18 1011.4 1011.3 0.0
08/09:00am 30.8 30.8 22.4 61 5.7 ENE 26 32 14 17 1011.4 1011.3 0.2
08/08:30am 30.1 30.3 22.1 62 5.4 ENE 24 30 13 16 1011.4 1011.3 0.2
08/08:00am 30.3 30.7 22.4 62 5.4 NE 24 30 13 16 1011.3 1011.2 0.0
08/07:30am 29.3 30.0 22.2 65 4.8 ENE 22 28 12 15 1011.2 1011.1 0.0
08/07:00am 28.1 29.3 22.5 71 3.8 NE 20 24 11 13 1011.0 1010.9 0.0
08/06:30am 27.9 28.8 22.6 73 3.6 NE 22 26 12 14 1010.9 1010.8 0.0
08/06:00am 27.2 28.6 22.6 76 3.1 NE 19 24 10 13 1010.6 1010.5 0.0
08/05:30am 26.8 28.9 23.1 80 2.5 NE 17 22 9 12 1010.2 1010.1 0.0
08/05:00am 26.7 30.0 23.2 81 2.4 NNE 11 13 6 7 1010.1 1010.0 0.0
08/04:30am 25.9 29.8 22.6 82 2.2 N 6 7 3 4 1010.0 1009.9 0.0
08/04:00am 26.9 29.6 22.9 79 2.7 NE 13 17 7 9 1009.8 1009.7 0.0
08/03:30am 26.7 29.1 23.0 80 2.5 NE 15 19 8 10 1009.7 1009.6 0.0
08/03:00am 27.0 29.0 23.0 79 2.7 NE 17 22 9 12 1009.8 1009.7 0.0
08/02:30am 27.1 29.1 23.0 78 2.8 NNE 17 22 9 12 1009.9 1009.8 0.0
08/02:00am 27.4 29.6 23.2 78 2.9 NE 17 22 9 12 1010.0 1009.9 0.0
08/01:30am 27.4 29.6 23.2 78 2.9 ENE 17 22 9 12 1010.1 1010.0 0.0
08/01:00am 27.2 29.9 22.9 77 2.9 ENE 13 19 7 10 1010.5 1010.4 0.0
08/12:30am 27.2 31.3 23.2 79 2.7 E 7 15 4 8 1011.1 1011.0 0.0
08/12:00am 27.6 30.8 23.1 76 3.1 ENE 11 17 6 9 1011.5 1011.4 0.0
 
Date/Time
EST
Temp
°C
App
Temp
°C
Dew
Point
°C
Rel
Hum
%
Delta-T
°C
Wind Press
QNH
hPa
Press
MSL
hPa
Rain since
9am
mm
Dir  Spd
km/h
Gust
km/h
Spd
kts
Gust
kts
07/11:30pm 27.5 31.0 22.9 76 3.1 ENE 9 13 5 7 1011.8 1011.7 0.0
07/11:00pm 27.4 29.9 22.5 74 3.3 ENE 13 17 7 9 1012.0 1011.9 0.0
07/10:30pm 27.3 29.9 22.7 76 3.1 ENE 13 17 7 9 1012.0 1011.9 0.0
07/10:00pm 27.2 29.8 22.0 73 3.5 ENE 11 13 6 7 1011.9 1011.8 0.0
07/09:30pm 27.3 29.0 22.3 74 3.4 ENE 17 19 9 10 1011.7 1011.6 0.0
07/09:00pm 27.4 28.9 22.0 72 3.6 ENE 17 20 9 11 1011.6 1011.5 0.0
07/08:30pm 27.4 28.3 21.9 72 3.7 NE 20 24 11 13 1011.5 1011.4 0.0
07/08:00pm 27.4 28.3 21.9 72 3.7 NE 20 26 11 14 1011.5 1011.4 0.0
07/07:30pm 27.5 28.4 22.0 72 3.7 ENE 20 26 11 14 1011.4 1011.3 0.0
07/07:00pm 27.7 28.6 21.9 70 3.9 NE 20 26 11 14 1011.3 1011.2 0.0
07/06:30pm 27.9 28.4 21.9 70 4.0 ENE 22 30 12 16 1011.3 1011.2 0.0
07/06:00pm 28.4 27.9 21.5 66 4.6 ENE 26 30 14 16 1011.1 1011.0 0.0
07/05:30pm 29.0 28.0 21.2 62 5.2 ENE 28 35 15 19 1010.9 1010.8 0.0
07/05:00pm 29.3 28.1 20.9 60 5.6 ENE 28 35 15 19 1010.8 1010.7 0.0
07/04:30pm 29.7 28.8 20.7 58 6.0 ENE 26 32 14 17 1010.4 1010.3 0.0
07/04:00pm 30.1 28.9 20.8 57 6.2 ENE 28 35 15 19 1010.4 1010.3 0.0
07/03:30pm 30.2 28.9 20.6 56 6.4 ENE 28 35 15 19 1010.6 1010.5 0.0
07/03:00pm 30.2 28.6 20.0 54 6.7 ENE 28 33 15 18 1010.8 1010.7 0.0
07/02:30pm 30.4 29.3 20.3 54 6.7 ENE 26 33 14 18 1011.0 1010.9 0.0
07/02:00pm 30.4 28.8 20.1 54 6.8 ENE 28 33 15 18 1011.4 1011.3 0.0
07/01:30pm 30.7 29.8 19.9 52 7.1 ENE 24 32 13 17 1011.7 1011.6 0.0
07/01:00pm 30.3 29.8 20.0 54 6.8 ENE 22 33 12 18 1012.0 1011.9 0.0
07/12:30pm 31.7 30.9 19.3 47 8.1 NE 22 32 12 17 1012.1 1012.0 0.0
07/12:00pm 31.6 30.3 19.0 47 8.2 NE 24 33 13 18 1012.2 1012.1 0.0
07/11:30am 30.5 29.9 18.9 50 7.5 NE 20 26 11 14 1012.4 1012.3 0.0
07/11:00am 30.7 31.0 18.8 49 7.7 ENE 15 26 8 14 1012.5 1012.4 0.0
07/10:30am 30.2 30.2 18.9 50 7.3 NE 17 24 9 13 1012.6 1012.5 0.0
07/10:00am 30.1 29.9 18.5 49 7.5 ENE 17 26 9 14 1012.7 1012.6 0.0
07/09:30am 29.7 29.4 19.6 54 6.6 ENE 20 26 11 14 1012.8 1012.7 0.0
07/09:00am 28.9 29.2 19.5 57 6.1 ENE 17 26 9 14 1012.7 1012.6 0.0
07/08:30am 29.1 29.5 18.1 51 7.0 ENE 13 19 7 10 1012.7 1012.6 0.0
07/08:00am 28.9 29.5 18.5 53 6.7 NNE 13 20 7 11 1012.7 1012.6 0.0
07/07:30am 27.9 28.8 18.3 56 6.1 NNE 11 17 6 9 1012.6 1012.5 0.0
07/07:00am 27.7 27.8 17.4 53 6.5 NNE 13 17 7 9 1012.4 1012.3 0.0
07/06:30am 27.4 27.0 17.2 53 6.4 NNE 15 20 8 11 1012.0 1011.9 0.0
07/06:00am 26.9 26.2 17.3 55 6.0 ENE 17 24 9 13 1011.5 1011.4 0.0
07/05:30am 25.4 27.3 19.0 67 4.1 ESE 7 11 4 6 1011.3 1011.2 0.0
07/05:00am 25.6 26.8 19.0 67 4.2 SE 11 13 6 7 1010.9 1010.8 0.0
07/04:30am 25.5 26.2 18.9 67 4.2 SE 13 15 7 8 1010.5 1010.4 0.0
07/04:00am 26.0 27.1 18.8 64 4.6 ESE 11 15 6 8 1010.5 1010.4 0.0
07/03:30am 26.4 26.5 18.4 61 5.1 ENE 15 20 8 11 1010.3 1010.2 0.0
07/03:00am 26.3 26.4 18.3 61 5.1 E 15 28 8 15 1010.5 1010.4 0.0
07/02:30am 26.3 26.7 19.1 64 4.6 E 15 20 8 11 1010.6 1010.5 0.0
07/02:00am 26.4 26.1 19.1 64 4.7 E 19 26 10 14 1010.5 1010.4 0.0
07/01:30am 26.5 26.9 18.9 63 4.9 E 15 22 8 12 1010.9 1010.8 0.0
07/01:00am 26.4 26.5 19.1 64 4.7 ENE 17 26 9 14 1011.1 1011.0 0.0
07/12:30am 26.7 26.8 19.9 66 4.4 ENE 19 26 10 14 1011.3 1011.2 0.0
07/12:00am 26.7 25.9 19.3 64 4.8 E 22 30 12 16 1011.6 1011.5 0.0
 
Date/Time
EST
Temp
°C
App
Temp
°C
Dew
Point
°C
Rel
Hum
%
Delta-T
°C
Wind Press
QNH
hPa
Press
MSL
hPa
Rain since
9am
mm
Dir  Spd
km/h
Gust
km/h
Spd
kts
Gust
kts
06/11:30pm 26.7 27.0 20.3 68 4.2 E 19 26 10 14 1012.1 1012.0 0.0
06/11:00pm 26.6 27.8 20.0 67 4.3 E 13 19 7 10 1012.4 1012.3 0.0
06/10:30pm 26.6 27.3 19.7 66 4.5 E 15 19 8 10 1012.7 1012.6 0.0
06/10:00pm 26.4 28.2 20.3 69 4.0 ESE 11 15 6 8 1012.6 1012.5 0.0
06/09:30pm 26.8 27.7 20.1 66 4.4 ENE 15 19 8 10 1012.5 1012.4 0.0
06/09:00pm 26.9 28.1 20.7 69 4.1 ENE 15 19 8 10 1012.3 1012.2 0.0
06/08:30pm 26.9 28.3 20.3 67 4.3 E 13 15 7 8 1012.3 1012.2 0.0
06/08:00pm 26.9 28.0 20.5 68 4.2 E 15 19 8 10 1012.3 1012.2 0.0
06/07:30pm 27.0 27.3 20.8 69 4.1 ENE 20 28 11 15 1011.9 1011.8 0.0
06/07:00pm 27.3 27.0 20.3 65 4.6 ENE 22 30 12 16 1011.7 1011.6 0.0
06/06:30pm 27.6 26.2 20.5 65 4.7 ENE 28 33 15 18 1011.4 1011.3 0.0
06/06:00pm 28.2 27.0 20.8 64 4.9 ENE 28 33 15 18 1011.2 1011.1 0.0
06/05:30pm 28.8 27.8 20.5 61 5.5 ENE 26 32 14 17 1011.3 1011.2 0.0
06/05:00pm 29.3 27.9 20.4 58 5.9 ENE 28 35 15 19 1011.1 1011.0 0.0
06/04:30pm 29.6 28.4 20.9 59 5.8 ENE 28 33 15 18 1011.0 1010.9 0.0
06/04:00pm 29.8 28.1 19.7 54 6.6 ENE 28 35 15 19 1011.2 1011.1 0.0
06/03:30pm 30.0 28.5 20.3 56 6.4 ENE 28 33 15 18 1011.2 1011.1 0.0
06/03:00pm 30.7 28.7 19.9 52 7.1 ENE 30 37 16 20 1011.3 1011.2 0.0
06/02:30pm 31.4 29.0 19.2 48 8.0 ENE 30 35 16 19 1011.4 1011.3 0.0
06/02:00pm 31.2 29.6 19.1 48 7.9 ENE 26 33 14 18 1011.8 1011.7 0.0
06/01:30pm 31.1 29.4 19.7 50 7.5 NE 28 35 15 19 1012.3 1012.2 0.0
06/01:00pm 30.8 28.8 19.1 49 7.6 ENE 28 35 15 19 1012.6 1012.5 0.0
06/12:30pm 30.7 28.3 18.3 47 8.0 NE 28 35 15 19 1012.9 1012.8 0.0
06/12:00pm 31.2 29.5 18.9 48 8.0 ENE 26 33 14 18 1013.2 1013.1 0.0
06/11:30am 30.8 29.4 18.8 48 7.8 NE 24 32 13 17 1013.6 1013.5 0.0
06/11:00am 30.5 28.9 19.3 51 7.3 ENE 26 35 14 19 1014.1 1014.0 0.0
06/10:30am 30.2 29.5 19.5 52 7.0 ENE 22 30 12 16 1014.5 1014.4 0.0
06/10:00am 30.4 30.1 19.5 52 7.1 ENE 20 28 11 15 1015.0 1014.9 0.0
06/09:30am 29.4 28.9 19.9 56 6.2 NE 22 32 12 17 1015.1 1015.0 0.0
06/09:00am 29.7 29.7 19.8 55 6.5 ENE 19 26 10 14 1015.1 1015.0 0.0
06/08:30am 30.0 29.7 19.2 52 7.0 ENE 19 28 10 15 1015.1 1015.0 0.0
06/08:00am 28.8 29.0 19.4 56 6.1 NE 17 26 9 14 1014.9 1014.8 0.0
06/07:30am 28.8 29.0 19.4 56 6.1 ENE 17 26 9 14 1014.6 1014.5 0.0
06/07:00am 28.0 30.0 20.7 64 4.8 SE 11 17 6 9 1014.4 1014.3 0.0
06/06:30am 26.8 28.9 20.9 70 3.9 SE 11 15 6 8 1014.2 1014.1 0.0
06/06:00am 25.9 27.5 20.7 73 3.4 SE 13 17 7 9 1013.6 1013.5 0.0
06/05:30am 25.4 27.4 20.7 75 3.1 SE 11 13 6 7 1013.3 1013.2 0.0
06/05:00am 25.5 27.4 20.6 74 3.2 SE 11 13 6 7 1012.9 1012.8 0.0
06/04:30am 25.3 27.6 20.6 75 3.1 SSE 9 11 5 6 1012.5 1012.4 0.0
06/04:00am 25.5 27.4 20.6 74 3.2 SE 11 13 6 7 1012.2 1012.1 0.0
06/03:30am 26.1 28.0 20.6 71 3.6 SE 11 15 6 8 1012.2 1012.1 0.0
06/03:00am 26.0 28.0 20.7 72 3.5 SE 11 11 6 6 1012.1 1012.0 0.0
06/02:30am 26.1 27.9 20.4 71 3.7 ESE 11 17 6 9 1012.2 1012.1 0.0
06/02:00am 26.2 28.9 20.7 71 3.6 E 7 11 4 6 1012.3 1012.2 0.0
06/01:30am 26.4 28.6 20.3 69 4.0 E 9 11 5 6 1012.5 1012.4 0.0
06/01:00am 26.4 28.3 20.6 70 3.8 ENE 11 13 6 7 1012.6 1012.5 0.0
06/12:30am 26.5 27.7 19.9 67 4.3 ENE 13 17 7 9 1012.8 1012.7 0.0
06/12:00am 26.8 28.1 20.9 70 3.9 ENE 15 19 8 10 1013.1 1013.0 0.0
 
Date/Time
EST
Temp
°C
App
Temp
°C
Dew
Point
°C
Rel
Hum
%
Delta-T
°C
Wind Press
QNH
hPa
Press
MSL
hPa
Rain since
9am
mm
Dir  Spd
km/h
Gust
km/h
Spd
kts
Gust
kts
05/11:30pm 26.9 27.9 20.3 67 4.3 ENE 15 19 8 10 1013.2 1013.1 0.0
05/11:00pm 26.7 27.9 20.6 69 4.0 ENE 15 17 8 9 1013.4 1013.3 0.0
05/10:30pm 26.6 27.8 20.7 70 3.9 ENE 15 19 8 10 1013.5 1013.4 0.0
05/10:00pm 26.8 28.2 21.1 71 3.8 ENE 15 19 8 10 1013.5 1013.4 0.0
05/09:30pm 26.5 28.3 21.2 72 3.5 E 13 15 7 8 1013.4 1013.3 0.0
05/09:00pm 26.6 27.8 20.7 70 3.9 ENE 15 19 8 10 1013.2 1013.1 0.0
05/08:30pm 26.6 28.5 21.3 72 3.5 ENE 13 15 7 8 1013.2 1013.1 0.0
05/08:00pm 26.8 28.4 21.5 72 3.5 ENE 15 17 8 9 1013.1 1013.0 0.0
05/07:30pm 27.0 28.3 20.9 69 4.0 ENE 15 19 8 10 1012.7 1012.6 0.0
05/07:00pm 27.2 28.5 20.8 68 4.2 ENE 15 19 8 10 1012.6 1012.5 0.0
05/06:30pm 27.5 28.0 21.2 68 4.2 ENE 20 24 11 13 1012.6 1012.5 0.0
05/06:00pm 28.1 27.4 20.3 62 5.1 ENE 24 30 13 16 1012.4 1012.3 0.0
05/05:30pm 28.9 27.9 20.4 60 5.6 ENE 26 32 14 17 1012.0 1011.9 0.0
05/05:00pm 29.4 27.2 19.6 55 6.4 ENE 30 33 16 18 1011.9 1011.8 0.0
05/04:30pm 29.8 28.1 19.7 54 6.6 ENE 28 33 15 18 1011.7 1011.6 0.0
05/04:00pm 29.9 28.3 20.0 55 6.5 ENE 28 33 15 18 1011.7 1011.6 0.0

Other Formats:

Comma delimited format used in spreadsheet applications
http://www.bom.gov.au/fwo/IDQ60801/IDQ60801.94294.axf

JavaScript Object Notation format (JSON) in row-major order
http://www.bom.gov.au/fwo/IDQ60801/IDQ60801.94294.json